sensor_id;sensor_type;location;lat;lon;timestamp;P1;durP1;ratioP1;P2;durP2;ratioP2
10260;SDS011;5175;42.606;23.388;2023-12-04T00:01:33;8.60;;;7.40;;
10260;SDS011;5175;42.606;23.388;2023-12-04T00:04:01;7.60;;;6.67;;
10260;SDS011;5175;42.606;23.388;2023-12-04T00:06:28;8.23;;;6.73;;
10260;SDS011;5175;42.606;23.388;2023-12-04T00:08:54;8.30;;;6.90;;
10260;SDS011;5175;42.606;23.388;2023-12-04T00:11:21;8.90;;;6.63;;
10260;SDS011;5175;42.606;23.388;2023-12-04T00:13:48;9.17;;;7.37;;
10260;SDS011;5175;42.606;23.388;2023-12-04T00:16:14;8.33;;;6.77;;
10260;SDS011;5175;42.606;23.388;2023-12-04T00:18:41;8.90;;;7.13;;
10260;SDS011;5175;42.606;23.388;2023-12-04T00:21:09;8.17;;;6.87;;
10260;SDS011;5175;42.606;23.388;2023-12-04T00:23:36;7.27;;;6.33;;
10260;SDS011;5175;42.606;23.388;2023-12-04T00:26:03;8.30;;;6.97;;
10260;SDS011;5175;42.606;23.388;2023-12-04T00:28:30;8.70;;;7.23;;
10260;SDS011;5175;42.606;23.388;2023-12-04T00:30:57;8.63;;;7.07;;
10260;SDS011;5175;42.606;23.388;2023-12-04T00:33:24;7.33;;;6.33;;
10260;SDS011;5175;42.606;23.388;2023-12-04T00:35:50;10.03;;;7.23;;
10260;SDS011;5175;42.606;23.388;2023-12-04T00:38:18;8.70;;;6.87;;
10260;SDS011;5175;42.606;23.388;2023-12-04T00:40:45;8.47;;;7.13;;
10260;SDS011;5175;42.606;23.388;2023-12-04T00:43:12;8.27;;;6.77;;
10260;SDS011;5175;42.606;23.388;2023-12-04T00:45:38;9.60;;;6.73;;
10260;SDS011;5175;42.606;23.388;2023-12-04T00:48:05;9.30;;;7.47;;
10260;SDS011;5175;42.606;23.388;2023-12-04T00:50:32;8.97;;;7.03;;
10260;SDS011;5175;42.606;23.388;2023-12-04T00:52:59;8.20;;;6.93;;
10260;SDS011;5175;42.606;23.388;2023-12-04T00:55:27;8.33;;;6.30;;
10260;SDS011;5175;42.606;23.388;2023-12-04T00:57:54;6.50;;;5.73;;
10260;SDS011;5175;42.606;23.388;2023-12-04T01:00:21;8.17;;;6.57;;
10260;SDS011;5175;42.606;23.388;2023-12-04T01:02:47;6.67;;;5.70;;
10260;SDS011;5175;42.606;23.388;2023-12-04T01:05:14;7.70;;;6.10;;
10260;SDS011;5175;42.606;23.388;2023-12-04T01:07:41;7.03;;;6.17;;
10260;SDS011;5175;42.606;23.388;2023-12-04T01:10:08;6.73;;;5.63;;
10260;SDS011;5175;42.606;23.388;2023-12-04T01:12:37;6.33;;;5.13;;
10260;SDS011;5175;42.606;23.388;2023-12-04T01:15:03;4.73;;;3.50;;
10260;SDS011;5175;42.606;23.388;2023-12-04T01:17:31;5.67;;;4.60;;
10260;SDS011;5175;42.606;23.388;2023-12-04T01:19:57;6.03;;;4.80;;
10260;SDS011;5175;42.606;23.388;2023-12-04T01:22:24;5.47;;;4.70;;
10260;SDS011;5175;42.606;23.388;2023-12-04T01:24:51;5.77;;;5.03;;
10260;SDS011;5175;42.606;23.388;2023-12-04T01:27:17;5.63;;;4.67;;
10260;SDS011;5175;42.606;23.388;2023-12-04T01:29:45;5.70;;;4.90;;
10260;SDS011;5175;42.606;23.388;2023-12-04T01:32:12;5.97;;;4.87;;
10260;SDS011;5175;42.606;23.388;2023-12-04T01:34:39;7.90;;;5.40;;
10260;SDS011;5175;42.606;23.388;2023-12-04T01:37:06;6.13;;;5.13;;
10260;SDS011;5175;42.606;23.388;2023-12-04T01:39:32;6.80;;;5.67;;
10260;SDS011;5175;42.606;23.388;2023-12-04T01:41:59;5.77;;;4.67;;
10260;SDS011;5175;42.606;23.388;2023-12-04T01:44:26;6.87;;;5.13;;
10260;SDS011;5175;42.606;23.388;2023-12-04T01:46:54;7.30;;;6.07;;
10260;SDS011;5175;42.606;23.388;2023-12-04T01:49:21;6.53;;;5.50;;
10260;SDS011;5175;42.606;23.388;2023-12-04T01:51:48;8.17;;;6.37;;
10260;SDS011;5175;42.606;23.388;2023-12-04T01:54:15;6.70;;;5.90;;
10260;SDS011;5175;42.606;23.388;2023-12-04T01:56:42;6.90;;;5.67;;
10260;SDS011;5175;42.606;23.388;2023-12-04T01:59:10;6.10;;;5.50;;
10260;SDS011;5175;42.606;23.388;2023-12-04T02:01:37;7.47;;;6.13;;
10260;SDS011;5175;42.606;23.388;2023-12-04T02:04:05;7.43;;;5.77;;
10260;SDS011;5175;42.606;23.388;2023-12-04T02:06:32;7.47;;;5.90;;
10260;SDS011;5175;42.606;23.388;2023-12-04T02:08:59;7.13;;;5.87;;
10260;SDS011;5175;42.606;23.388;2023-12-04T02:11:26;7.57;;;6.17;;
10260;SDS011;5175;42.606;23.388;2023-12-04T02:13:53;10.47;;;5.67;;
10260;SDS011;5175;42.606;23.388;2023-12-04T02:16:20;7.37;;;5.87;;
10260;SDS011;5175;42.606;23.388;2023-12-04T02:18:51;6.57;;;5.73;;
10260;SDS011;5175;42.606;23.388;2023-12-04T02:21:19;7.67;;;6.27;;
10260;SDS011;5175;42.606;23.388;2023-12-04T02:23:48;6.63;;;5.43;;
10260;SDS011;5175;42.606;23.388;2023-12-04T02:26:16;7.03;;;6.20;;
10260;SDS011;5175;42.606;23.388;2023-12-04T02:28:49;6.90;;;5.67;;
10260;SDS011;5175;42.606;23.388;2023-12-04T02:31:20;6.67;;;5.57;;
10260;SDS011;5175;42.606;23.388;2023-12-04T02:33:50;7.93;;;6.00;;
10260;SDS011;5175;42.606;23.388;2023-12-04T02:36:22;6.83;;;5.97;;
10260;SDS011;5175;42.606;23.388;2023-12-04T02:38:54;6.30;;;5.67;;
10260;SDS011;5175;42.606;23.388;2023-12-04T02:41:21;7.43;;;5.30;;
10260;SDS011;5175;42.606;23.388;2023-12-04T02:43:48;6.97;;;5.37;;
10260;SDS011;5175;42.606;23.388;2023-12-04T02:46:15;6.60;;;5.20;;
10260;SDS011;5175;42.606;23.388;2023-12-04T02:48:42;6.97;;;5.20;;
10260;SDS011;5175;42.606;23.388;2023-12-04T02:51:09;6.67;;;5.30;;
10260;SDS011;5175;42.606;23.388;2023-12-04T02:53:36;6.27;;;5.53;;
10260;SDS011;5175;42.606;23.388;2023-12-04T02:56:05;7.07;;;5.53;;
10260;SDS011;5175;42.606;23.388;2023-12-04T02:58:32;6.20;;;5.00;;
10260;SDS011;5175;42.606;23.388;2023-12-04T03:00:59;6.03;;;4.77;;
10260;SDS011;5175;42.606;23.388;2023-12-04T03:03:26;6.80;;;5.33;;
10260;SDS011;5175;42.606;23.388;2023-12-04T03:05:53;6.40;;;5.10;;
10260;SDS011;5175;42.606;23.388;2023-12-04T03:08:20;6.07;;;5.00;;
10260;SDS011;5175;42.606;23.388;2023-12-04T03:10:46;6.33;;;5.30;;
10260;SDS011;5175;42.606;23.388;2023-12-04T03:13:14;5.73;;;5.13;;
10260;SDS011;5175;42.606;23.388;2023-12-04T03:15:41;7.30;;;5.50;;
10260;SDS011;5175;42.606;23.388;2023-12-04T03:18:08;6.00;;;4.97;;
10260;SDS011;5175;42.606;23.388;2023-12-04T03:20:34;6.20;;;5.30;;
10260;SDS011;5175;42.606;23.388;2023-12-04T03:23:01;6.63;;;5.43;;
10260;SDS011;5175;42.606;23.388;2023-12-04T03:25:28;6.63;;;5.50;;
10260;SDS011;5175;42.606;23.388;2023-12-04T03:27:54;7.20;;;5.73;;
10260;SDS011;5175;42.606;23.388;2023-12-04T03:30:22;6.73;;;5.73;;
10260;SDS011;5175;42.606;23.388;2023-12-04T03:32:49;6.27;;;5.23;;
10260;SDS011;5175;42.606;23.388;2023-12-04T03:35:16;6.83;;;5.57;;
10260;SDS011;5175;42.606;23.388;2023-12-04T03:37:43;7.87;;;5.60;;
10260;SDS011;5175;42.606;23.388;2023-12-04T03:40:10;6.83;;;5.77;;
10260;SDS011;5175;42.606;23.388;2023-12-04T03:42:37;6.47;;;5.40;;
10260;SDS011;5175;42.606;23.388;2023-12-04T03:45:06;7.83;;;5.83;;
10260;SDS011;5175;42.606;23.388;2023-12-04T03:47:34;6.67;;;5.43;;
10260;SDS011;5175;42.606;23.388;2023-12-04T03:50:01;6.63;;;5.20;;
10260;SDS011;5175;42.606;23.388;2023-12-04T03:52:28;7.40;;;5.50;;
10260;SDS011;5175;42.606;23.388;2023-12-04T03:54:55;6.63;;;5.30;;
10260;SDS011;5175;42.606;23.388;2023-12-04T03:57:22;5.63;;;5.00;;
10260;SDS011;5175;42.606;23.388;2023-12-04T03:59:48;5.67;;;4.90;;
10260;SDS011;5175;42.606;23.388;2023-12-04T04:02:15;6.07;;;5.37;;
10260;SDS011;5175;42.606;23.388;2023-12-04T04:04:43;7.03;;;5.73;;
10260;SDS011;5175;42.606;23.388;2023-12-04T04:07:10;6.77;;;5.83;;
10260;SDS011;5175;42.606;23.388;2023-12-04T04:09:37;6.23;;;4.87;;
10260;SDS011;5175;42.606;23.388;2023-12-04T04:12:04;5.90;;;4.87;;
10260;SDS011;5175;42.606;23.388;2023-12-04T04:14:31;5.60;;;4.93;;
10260;SDS011;5175;42.606;23.388;2023-12-04T04:16:58;6.53;;;5.00;;
10260;SDS011;5175;42.606;23.388;2023-12-04T04:19:25;6.37;;;5.30;;
10260;SDS011;5175;42.606;23.388;2023-12-04T04:21:53;6.60;;;5.13;;
10260;SDS011;5175;42.606;23.388;2023-12-04T04:24:19;6.03;;;5.10;;
10260;SDS011;5175;42.606;23.388;2023-12-04T04:26:46;6.53;;;5.47;;
10260;SDS011;5175;42.606;23.388;2023-12-04T04:29:13;6.60;;;5.50;;
10260;SDS011;5175;42.606;23.388;2023-12-04T04:31:40;5.60;;;5.00;;
10260;SDS011;5175;42.606;23.388;2023-12-04T04:34:06;5.63;;;5.03;;
10260;SDS011;5175;42.606;23.388;2023-12-04T04:36:33;6.40;;;4.87;;
10260;SDS011;5175;42.606;23.388;2023-12-04T04:39:02;6.73;;;5.43;;
10260;SDS011;5175;42.606;23.388;2023-12-04T04:41:28;6.93;;;5.23;;
10260;SDS011;5175;42.606;23.388;2023-12-04T04:43:55;5.80;;;5.13;;
10260;SDS011;5175;42.606;23.388;2023-12-04T04:46:22;6.37;;;5.47;;
10260;SDS011;5175;42.606;23.388;2023-12-04T04:48:50;6.10;;;5.20;;
10260;SDS011;5175;42.606;23.388;2023-12-04T04:51:17;10.77;;;7.73;;
10260;SDS011;5175;42.606;23.388;2023-12-04T04:53:44;9.27;;;6.93;;
10260;SDS011;5175;42.606;23.388;2023-12-04T04:56:12;6.43;;;4.83;;
10260;SDS011;5175;42.606;23.388;2023-12-04T04:58:38;10.53;;;8.30;;
10260;SDS011;5175;42.606;23.388;2023-12-04T05:01:05;19.20;;;13.57;;
10260;SDS011;5175;42.606;23.388;2023-12-04T05:03:33;17.93;;;12.40;;
10260;SDS011;5175;42.606;23.388;2023-12-04T05:06:00;6.73;;;6.03;;
10260;SDS011;5175;42.606;23.388;2023-12-04T05:08:26;7.60;;;6.20;;
10260;SDS011;5175;42.606;23.388;2023-12-04T05:10:53;7.63;;;5.50;;
10260;SDS011;5175;42.606;23.388;2023-12-04T05:13:22;7.47;;;5.37;;
10260;SDS011;5175;42.606;23.388;2023-12-04T05:15:48;8.57;;;6.13;;
10260;SDS011;5175;42.606;23.388;2023-12-04T05:18:15;6.33;;;5.50;;
10260;SDS011;5175;42.606;23.388;2023-12-04T05:20:42;7.47;;;6.10;;
10260;SDS011;5175;42.606;23.388;2023-12-04T05:23:08;6.93;;;5.57;;
10260;SDS011;5175;42.606;23.388;2023-12-04T05:25:35;7.13;;;5.83;;
10260;SDS011;5175;42.606;23.388;2023-12-04T05:28:02;9.00;;;6.10;;
10260;SDS011;5175;42.606;23.388;2023-12-04T05:30:30;7.53;;;6.23;;
10260;SDS011;5175;42.606;23.388;2023-12-04T05:32:57;6.53;;;5.63;;
10260;SDS011;5175;42.606;23.388;2023-12-04T05:35:24;9.00;;;6.20;;
10260;SDS011;5175;42.606;23.388;2023-12-04T05:37:51;7.57;;;5.83;;
10260;SDS011;5175;42.606;23.388;2023-12-04T05:40:18;7.00;;;5.47;;
10260;SDS011;5175;42.606;23.388;2023-12-04T05:42:44;7.60;;;5.43;;
10260;SDS011;5175;42.606;23.388;2023-12-04T05:45:11;6.43;;;5.13;;
10260;SDS011;5175;42.606;23.388;2023-12-04T05:47:39;7.83;;;5.47;;
10260;SDS011;5175;42.606;23.388;2023-12-04T05:50:06;7.37;;;5.77;;
10260;SDS011;5175;42.606;23.388;2023-12-04T05:52:34;6.73;;;5.50;;
10260;SDS011;5175;42.606;23.388;2023-12-04T05:55:00;10.00;;;5.63;;
10260;SDS011;5175;42.606;23.388;2023-12-04T05:57:27;12.07;;;7.87;;
10260;SDS011;5175;42.606;23.388;2023-12-04T05:59:54;6.60;;;5.50;;
10260;SDS011;5175;42.606;23.388;2023-12-04T06:02:21;8.33;;;5.50;;
10260;SDS011;5175;42.606;23.388;2023-12-04T06:04:49;7.73;;;5.57;;
10260;SDS011;5175;42.606;23.388;2023-12-04T06:07:16;8.57;;;5.33;;
10260;SDS011;5175;42.606;23.388;2023-12-04T06:09:43;7.00;;;5.47;;
10260;SDS011;5175;42.606;23.388;2023-12-04T06:12:09;7.93;;;5.63;;
10260;SDS011;5175;42.606;23.388;2023-12-04T06:14:36;6.93;;;5.63;;
10260;SDS011;5175;42.606;23.388;2023-12-04T06:17:03;57.80;;;17.20;;
10260;SDS011;5175;42.606;23.388;2023-12-04T06:19:31;8.33;;;5.60;;
10260;SDS011;5175;42.606;23.388;2023-12-04T06:21:59;7.40;;;5.80;;
10260;SDS011;5175;42.606;23.388;2023-12-04T06:24:26;6.83;;;5.57;;
10260;SDS011;5175;42.606;23.388;2023-12-04T06:26:53;7.50;;;6.00;;
10260;SDS011;5175;42.606;23.388;2023-12-04T06:29:20;7.60;;;6.47;;
10260;SDS011;5175;42.606;23.388;2023-12-04T06:31:48;7.00;;;6.03;;
10260;SDS011;5175;42.606;23.388;2023-12-04T06:34:15;9.27;;;6.63;;
10260;SDS011;5175;42.606;23.388;2023-12-04T06:36:42;9.77;;;7.90;;
10260;SDS011;5175;42.606;23.388;2023-12-04T06:39:11;8.33;;;6.93;;
10260;SDS011;5175;42.606;23.388;2023-12-04T06:41:38;10.10;;;7.47;;
10260;SDS011;5175;42.606;23.388;2023-12-04T06:44:06;8.90;;;7.40;;
10260;SDS011;5175;42.606;23.388;2023-12-04T06:46:34;8.97;;;7.07;;
10260;SDS011;5175;42.606;23.388;2023-12-04T06:49:04;10.43;;;7.33;;
10260;SDS011;5175;42.606;23.388;2023-12-04T06:51:32;9.17;;;7.37;;
10260;SDS011;5175;42.606;23.388;2023-12-04T06:53:58;9.73;;;7.57;;
10260;SDS011;5175;42.606;23.388;2023-12-04T06:56:26;7.67;;;6.73;;
10260;SDS011;5175;42.606;23.388;2023-12-04T06:58:53;9.03;;;7.43;;
10260;SDS011;5175;42.606;23.388;2023-12-04T07:01:20;9.53;;;7.77;;
10260;SDS011;5175;42.606;23.388;2023-12-04T07:03:48;8.50;;;6.93;;
10260;SDS011;5175;42.606;23.388;2023-12-04T07:06:14;10.33;;;7.70;;
10260;SDS011;5175;42.606;23.388;2023-12-04T07:08:41;10.93;;;7.50;;
10260;SDS011;5175;42.606;23.388;2023-12-04T07:11:08;8.27;;;6.67;;
10260;SDS011;5175;42.606;23.388;2023-12-04T07:13:36;9.33;;;6.33;;
10260;SDS011;5175;42.606;23.388;2023-12-04T07:16:03;9.07;;;6.90;;
10260;SDS011;5175;42.606;23.388;2023-12-04T07:18:31;8.07;;;6.17;;
10260;SDS011;5175;42.606;23.388;2023-12-04T07:20:57;8.43;;;6.63;;
10260;SDS011;5175;42.606;23.388;2023-12-04T07:23:24;7.37;;;6.17;;
10260;SDS011;5175;42.606;23.388;2023-12-04T07:25:51;8.63;;;6.13;;
10260;SDS011;5175;42.606;23.388;2023-12-04T07:28:18;7.77;;;6.03;;
10260;SDS011;5175;42.606;23.388;2023-12-04T07:30:46;8.57;;;6.93;;
10260;SDS011;5175;42.606;23.388;2023-12-04T07:33:12;15.83;;;7.20;;
10260;SDS011;5175;42.606;23.388;2023-12-04T07:35:39;9.83;;;7.60;;
10260;SDS011;5175;42.606;23.388;2023-12-04T07:38:06;9.50;;;6.67;;
10260;SDS011;5175;42.606;23.388;2023-12-04T07:40:32;7.97;;;6.03;;
10260;SDS011;5175;42.606;23.388;2023-12-04T07:42:59;11.20;;;7.53;;
10260;SDS011;5175;42.606;23.388;2023-12-04T07:45:26;15.73;;;10.47;;
10260;SDS011;5175;42.606;23.388;2023-12-04T07:47:54;10.07;;;6.97;;
10260;SDS011;5175;42.606;23.388;2023-12-04T07:50:21;7.53;;;5.93;;
10260;SDS011;5175;42.606;23.388;2023-12-04T07:52:49;7.50;;;6.30;;
10260;SDS011;5175;42.606;23.388;2023-12-04T07:55:16;7.47;;;5.90;;
10260;SDS011;5175;42.606;23.388;2023-12-04T07:57:42;7.43;;;6.30;;
10260;SDS011;5175;42.606;23.388;2023-12-04T08:00:09;7.30;;;6.07;;
10260;SDS011;5175;42.606;23.388;2023-12-04T08:02:37;7.57;;;6.70;;
10260;SDS011;5175;42.606;23.388;2023-12-04T08:05:05;7.47;;;6.33;;
10260;SDS011;5175;42.606;23.388;2023-12-04T08:07:32;5.77;;;4.17;;
10260;SDS011;5175;42.606;23.388;2023-12-04T08:09:59;7.57;;;6.20;;
10260;SDS011;5175;42.606;23.388;2023-12-04T08:12:26;7.50;;;6.50;;
10260;SDS011;5175;42.606;23.388;2023-12-04T08:14:53;6.43;;;5.60;;
10260;SDS011;5175;42.606;23.388;2023-12-04T08:17:20;8.37;;;5.53;;
10260;SDS011;5175;42.606;23.388;2023-12-04T08:19:47;7.13;;;5.80;;
10260;SDS011;5175;42.606;23.388;2023-12-04T08:22:15;7.63;;;6.57;;
10260;SDS011;5175;42.606;23.388;2023-12-04T08:24:41;9.00;;;7.17;;
10260;SDS011;5175;42.606;23.388;2023-12-04T08:27:08;7.23;;;6.53;;
10260;SDS011;5175;42.606;23.388;2023-12-04T08:29:35;8.20;;;6.40;;
10260;SDS011;5175;42.606;23.388;2023-12-04T08:32:01;8.37;;;6.37;;
10260;SDS011;5175;42.606;23.388;2023-12-04T08:34:29;7.07;;;5.87;;
10260;SDS011;5175;42.606;23.388;2023-12-04T08:36:56;6.10;;;5.37;;
10260;SDS011;5175;42.606;23.388;2023-12-04T08:39:24;9.17;;;5.43;;
10260;SDS011;5175;42.606;23.388;2023-12-04T08:41:51;10.23;;;6.20;;
10260;SDS011;5175;42.606;23.388;2023-12-04T08:44:18;7.00;;;5.90;;
10260;SDS011;5175;42.606;23.388;2023-12-04T08:46:45;6.60;;;5.57;;
10260;SDS011;5175;42.606;23.388;2023-12-04T08:49:11;7.17;;;6.10;;
10260;SDS011;5175;42.606;23.388;2023-12-04T08:51:38;10.43;;;5.50;;
10260;SDS011;5175;42.606;23.388;2023-12-04T08:54:06;6.77;;;5.33;;
10260;SDS011;5175;42.606;23.388;2023-12-04T08:56:34;7.10;;;5.63;;
10260;SDS011;5175;42.606;23.388;2023-12-04T08:59:01;9.10;;;6.40;;
10260;SDS011;5175;42.606;23.388;2023-12-04T09:01:28;6.43;;;5.43;;
10260;SDS011;5175;42.606;23.388;2023-12-04T09:03:54;7.17;;;5.93;;
10260;SDS011;5175;42.606;23.388;2023-12-04T09:06:21;6.03;;;5.30;;
10260;SDS011;5175;42.606;23.388;2023-12-04T09:08:48;6.30;;;5.70;;
10260;SDS011;5175;42.606;23.388;2023-12-04T09:11:14;4.27;;;3.60;;
10260;SDS011;5175;42.606;23.388;2023-12-04T09:13:42;5.07;;;3.93;;
10260;SDS011;5175;42.606;23.388;2023-12-04T09:16:10;7.23;;;5.07;;
10260;SDS011;5175;42.606;23.388;2023-12-04T09:18:36;5.17;;;4.60;;
10260;SDS011;5175;42.606;23.388;2023-12-04T09:21:03;5.33;;;4.47;;
10260;SDS011;5175;42.606;23.388;2023-12-04T09:23:30;6.63;;;5.13;;
10260;SDS011;5175;42.606;23.388;2023-12-04T09:25:57;7.20;;;5.33;;
10260;SDS011;5175;42.606;23.388;2023-12-04T09:28:24;6.70;;;4.93;;
10260;SDS011;5175;42.606;23.388;2023-12-04T09:30:52;6.00;;;5.03;;
10260;SDS011;5175;42.606;23.388;2023-12-04T09:33:18;5.27;;;4.53;;
10260;SDS011;5175;42.606;23.388;2023-12-04T09:35:45;7.03;;;5.00;;
10260;SDS011;5175;42.606;23.388;2023-12-04T09:38:12;5.60;;;4.80;;
10260;SDS011;5175;42.606;23.388;2023-12-04T09:40:38;10.10;;;5.37;;
10260;SDS011;5175;42.606;23.388;2023-12-04T09:43:05;6.77;;;5.27;;
10260;SDS011;5175;42.606;23.388;2023-12-04T09:45:32;5.93;;;4.60;;
10260;SDS011;5175;42.606;23.388;2023-12-04T09:48:01;5.87;;;5.30;;
10260;SDS011;5175;42.606;23.388;2023-12-04T09:50:28;7.13;;;5.13;;
10260;SDS011;5175;42.606;23.388;2023-12-04T09:52:55;7.43;;;5.07;;
10260;SDS011;5175;42.606;23.388;2023-12-04T09:55:27;8.07;;;5.40;;
10260;SDS011;5175;42.606;23.388;2023-12-04T09:57:53;7.57;;;5.70;;
10260;SDS011;5175;42.606;23.388;2023-12-04T10:00:23;6.80;;;5.60;;
10260;SDS011;5175;42.606;23.388;2023-12-04T10:02:50;6.97;;;5.77;;
10260;SDS011;5175;42.606;23.388;2023-12-04T10:05:19;5.77;;;4.43;;
10260;SDS011;5175;42.606;23.388;2023-12-04T10:07:46;6.43;;;4.90;;
10260;SDS011;5175;42.606;23.388;2023-12-04T10:10:13;6.40;;;5.17;;
10260;SDS011;5175;42.606;23.388;2023-12-04T10:12:40;7.13;;;5.57;;
10260;SDS011;5175;42.606;23.388;2023-12-04T10:15:08;6.50;;;5.53;;
10260;SDS011;5175;42.606;23.388;2023-12-04T10:17:36;6.77;;;5.47;;
10260;SDS011;5175;42.606;23.388;2023-12-04T10:20:07;5.93;;;5.33;;
10260;SDS011;5175;42.606;23.388;2023-12-04T10:22:39;7.60;;;5.90;;
10260;SDS011;5175;42.606;23.388;2023-12-04T10:25:17;6.00;;;5.23;;
10260;SDS011;5175;42.606;23.388;2023-12-04T10:27:44;7.90;;;5.47;;
10260;SDS011;5175;42.606;23.388;2023-12-04T10:30:21;7.23;;;5.80;;
10260;SDS011;5175;42.606;23.388;2023-12-04T10:32:49;8.70;;;5.77;;
10260;SDS011;5175;42.606;23.388;2023-12-04T10:35:20;7.43;;;5.60;;
10260;SDS011;5175;42.606;23.388;2023-12-04T10:37:49;7.93;;;5.80;;
10260;SDS011;5175;42.606;23.388;2023-12-04T10:40:22;7.07;;;5.30;;
10260;SDS011;5175;42.606;23.388;2023-12-04T10:42:49;6.03;;;5.27;;
10260;SDS011;5175;42.606;23.388;2023-12-04T10:45:16;7.73;;;5.43;;
10260;SDS011;5175;42.606;23.388;2023-12-04T10:47:48;7.13;;;5.60;;
10260;SDS011;5175;42.606;23.388;2023-12-04T10:50:17;7.87;;;5.30;;
10260;SDS011;5175;42.606;23.388;2023-12-04T10:52:44;6.00;;;5.40;;
10260;SDS011;5175;42.606;23.388;2023-12-04T10:55:13;6.77;;;5.30;;
10260;SDS011;5175;42.606;23.388;2023-12-04T10:57:40;6.00;;;5.17;;
10260;SDS011;5175;42.606;23.388;2023-12-04T11:00:12;5.63;;;5.07;;
10260;SDS011;5175;42.606;23.388;2023-12-04T11:02:42;7.53;;;5.93;;
10260;SDS011;5175;42.606;23.388;2023-12-04T11:05:13;5.93;;;5.17;;
10260;SDS011;5175;42.606;23.388;2023-12-04T11:07:46;6.13;;;5.30;;
10260;SDS011;5175;42.606;23.388;2023-12-04T11:10:18;8.40;;;5.50;;
10260;SDS011;5175;42.606;23.388;2023-12-04T11:12:48;6.10;;;5.50;;
10260;SDS011;5175;42.606;23.388;2023-12-04T11:15:22;6.37;;;5.20;;
10260;SDS011;5175;42.606;23.388;2023-12-04T11:17:51;5.93;;;5.40;;
10260;SDS011;5175;42.606;23.388;2023-12-04T11:20:24;7.40;;;6.13;;
10260;SDS011;5175;42.606;23.388;2023-12-04T11:22:54;7.27;;;5.37;;
10260;SDS011;5175;42.606;23.388;2023-12-04T11:25:23;7.23;;;5.47;;
10260;SDS011;5175;42.606;23.388;2023-12-04T11:27:50;6.97;;;6.00;;
10260;SDS011;5175;42.606;23.388;2023-12-04T11:30:17;6.17;;;5.40;;
10260;SDS011;5175;42.606;23.388;2023-12-04T11:32:45;7.00;;;6.27;;
10260;SDS011;5175;42.606;23.388;2023-12-04T11:35:14;8.13;;;5.67;;
10260;SDS011;5175;42.606;23.388;2023-12-04T11:37:43;8.50;;;5.97;;
10260;SDS011;5175;42.606;23.388;2023-12-04T11:40:11;7.77;;;6.57;;
10260;SDS011;5175;42.606;23.388;2023-12-04T11:42:40;5.93;;;5.33;;
10260;SDS011;5175;42.606;23.388;2023-12-04T11:45:07;9.10;;;5.70;;
10260;SDS011;5175;42.606;23.388;2023-12-04T11:47:51;6.40;;;5.60;;
10260;SDS011;5175;42.606;23.388;2023-12-04T11:50:18;9.20;;;6.73;;
10260;SDS011;5175;42.606;23.388;2023-12-04T11:52:46;7.13;;;6.13;;
10260;SDS011;5175;42.606;23.388;2023-12-04T11:55:15;7.67;;;5.90;;
10260;SDS011;5175;42.606;23.388;2023-12-04T11:57:44;8.63;;;5.97;;
10260;SDS011;5175;42.606;23.388;2023-12-04T12:00:13;9.90;;;6.20;;
10260;SDS011;5175;42.606;23.388;2023-12-04T12:02:46;7.37;;;6.10;;
10260;SDS011;5175;42.606;23.388;2023-12-04T12:05:15;8.73;;;6.67;;
10260;SDS011;5175;42.606;23.388;2023-12-04T12:07:42;9.00;;;6.27;;
10260;SDS011;5175;42.606;23.388;2023-12-04T12:10:09;9.30;;;6.20;;
10260;SDS011;5175;42.606;23.388;2023-12-04T12:12:38;8.63;;;5.57;;
10260;SDS011;5175;42.606;23.388;2023-12-04T12:15:09;7.90;;;5.60;;
10260;SDS011;5175;42.606;23.388;2023-12-04T12:17:37;8.20;;;6.20;;
10260;SDS011;5175;42.606;23.388;2023-12-04T12:20:05;6.70;;;5.93;;
10260;SDS011;5175;42.606;23.388;2023-12-04T12:22:32;8.10;;;6.33;;
10260;SDS011;5175;42.606;23.388;2023-12-04T12:25:00;9.70;;;6.57;;
10260;SDS011;5175;42.606;23.388;2023-12-04T12:27:27;8.07;;;6.30;;
10260;SDS011;5175;42.606;23.388;2023-12-04T12:29:53;7.73;;;6.33;;
10260;SDS011;5175;42.606;23.388;2023-12-04T12:32:21;8.60;;;6.70;;
10260;SDS011;5175;42.606;23.388;2023-12-04T12:34:48;7.87;;;6.80;;
10260;SDS011;5175;42.606;23.388;2023-12-04T12:37:15;9.27;;;6.37;;
10260;SDS011;5175;42.606;23.388;2023-12-04T12:39:42;11.17;;;6.90;;
10260;SDS011;5175;42.606;23.388;2023-12-04T12:42:09;8.13;;;6.70;;
10260;SDS011;5175;42.606;23.388;2023-12-04T12:44:37;7.70;;;6.57;;
10260;SDS011;5175;42.606;23.388;2023-12-04T12:47:05;10.23;;;7.67;;
10260;SDS011;5175;42.606;23.388;2023-12-04T12:49:34;9.13;;;6.87;;
10260;SDS011;5175;42.606;23.388;2023-12-04T12:52:02;9.07;;;7.40;;
10260;SDS011;5175;42.606;23.388;2023-12-04T12:54:31;11.87;;;7.53;;
10260;SDS011;5175;42.606;23.388;2023-12-04T12:56:59;8.53;;;7.40;;
10260;SDS011;5175;42.606;23.388;2023-12-04T12:59:26;10.13;;;7.83;;
10260;SDS011;5175;42.606;23.388;2023-12-04T13:01:53;11.90;;;8.70;;
10260;SDS011;5175;42.606;23.388;2023-12-04T13:04:21;13.07;;;8.53;;
10260;SDS011;5175;42.606;23.388;2023-12-04T13:06:49;11.60;;;9.10;;
10260;SDS011;5175;42.606;23.388;2023-12-04T13:09:16;14.37;;;8.93;;
10260;SDS011;5175;42.606;23.388;2023-12-04T13:11:44;11.57;;;8.77;;
10260;SDS011;5175;42.606;23.388;2023-12-04T13:14:10;11.90;;;8.93;;
10260;SDS011;5175;42.606;23.388;2023-12-04T13:16:37;11.07;;;9.03;;
10260;SDS011;5175;42.606;23.388;2023-12-04T13:19:04;9.33;;;8.37;;
10260;SDS011;5175;42.606;23.388;2023-12-04T13:21:31;12.90;;;9.40;;
10260;SDS011;5175;42.606;23.388;2023-12-04T13:24:00;8.77;;;7.87;;
10260;SDS011;5175;42.606;23.388;2023-12-04T13:26:26;9.77;;;7.87;;
10260;SDS011;5175;42.606;23.388;2023-12-04T13:28:53;8.80;;;7.77;;
10260;SDS011;5175;42.606;23.388;2023-12-04T13:31:20;11.23;;;9.00;;
10260;SDS011;5175;42.606;23.388;2023-12-04T13:33:47;12.47;;;7.37;;
10260;SDS011;5175;42.606;23.388;2023-12-04T13:36:13;8.73;;;7.37;;
10260;SDS011;5175;42.606;23.388;2023-12-04T13:38:40;10.77;;;8.57;;
10260;SDS011;5175;42.606;23.388;2023-12-04T13:41:08;11.13;;;7.57;;
10260;SDS011;5175;42.606;23.388;2023-12-04T13:43:55;7.87;;;6.63;;
10260;SDS011;5175;42.606;23.388;2023-12-04T13:46:24;9.33;;;7.27;;
10260;SDS011;5175;42.606;23.388;2023-12-04T13:48:52;9.90;;;7.33;;
10260;SDS011;5175;42.606;23.388;2023-12-04T13:51:19;9.23;;;8.23;;
10260;SDS011;5175;42.606;23.388;2023-12-04T13:53:45;10.47;;;8.03;;
10260;SDS011;5175;42.606;23.388;2023-12-04T13:56:16;10.77;;;8.00;;
10260;SDS011;5175;42.606;23.388;2023-12-04T13:59:00;9.57;;;7.73;;
10260;SDS011;5175;42.606;23.388;2023-12-04T14:01:29;9.37;;;7.97;;
10260;SDS011;5175;42.606;23.388;2023-12-04T14:03:56;9.03;;;8.07;;
10260;SDS011;5175;42.606;23.388;2023-12-04T14:06:26;9.27;;;8.00;;
10260;SDS011;5175;42.606;23.388;2023-12-04T14:08:53;10.87;;;8.43;;
10260;SDS011;5175;42.606;23.388;2023-12-04T14:11:22;8.90;;;8.00;;
10260;SDS011;5175;42.606;23.388;2023-12-04T14:13:48;11.17;;;8.97;;
10260;SDS011;5175;42.606;23.388;2023-12-04T14:16:16;12.67;;;8.90;;
10260;SDS011;5175;42.606;23.388;2023-12-04T14:18:44;10.53;;;9.20;;
10260;SDS011;5175;42.606;23.388;2023-12-04T14:21:11;10.10;;;8.70;;
10260;SDS011;5175;42.606;23.388;2023-12-04T14:23:38;12.87;;;9.00;;
10260;SDS011;5175;42.606;23.388;2023-12-04T14:26:04;17.80;;;9.63;;
10260;SDS011;5175;42.606;23.388;2023-12-04T14:28:33;21.83;;;13.90;;
10260;SDS011;5175;42.606;23.388;2023-12-04T14:30:59;23.27;;;13.70;;
10260;SDS011;5175;42.606;23.388;2023-12-04T14:33:26;16.47;;;12.47;;
10260;SDS011;5175;42.606;23.388;2023-12-04T14:35:53;19.73;;;13.10;;
10260;SDS011;5175;42.606;23.388;2023-12-04T14:38:19;16.03;;;11.00;;
10260;SDS011;5175;42.606;23.388;2023-12-04T14:40:47;17.53;;;11.33;;
10260;SDS011;5175;42.606;23.388;2023-12-04T14:43:14;18.57;;;13.97;;
10260;SDS011;5175;42.606;23.388;2023-12-04T14:45:42;24.30;;;18.97;;
10260;SDS011;5175;42.606;23.388;2023-12-04T14:48:09;22.00;;;16.90;;